createdAt,value
2022-10-14T00:00:54.441Z,16.40
2022-10-14T00:03:21.961Z,16.20
2022-10-14T00:05:49.404Z,16.10
2022-10-14T00:08:16.872Z,16.10
2022-10-14T00:10:44.325Z,16.10
2022-10-14T00:13:11.896Z,16.20
2022-10-14T00:15:42.456Z,16.10
2022-10-14T00:18:10.023Z,16.20
2022-10-14T00:20:37.465Z,16.10
2022-10-14T00:23:04.865Z,16.10
2022-10-14T00:25:32.248Z,16.10
2022-10-14T00:28:03.649Z,16.20
2022-10-14T00:30:31.119Z,16.20
2022-10-14T00:33:00.308Z,16.10
2022-10-14T00:35:27.736Z,16.00
2022-10-14T00:37:55.250Z,16.00
2022-10-14T00:40:23.430Z,16.00
2022-10-14T00:42:50.931Z,16.10
2022-10-14T00:45:22.949Z,16.00
2022-10-14T00:47:52.280Z,15.90
2022-10-14T00:50:20.361Z,16.00
2022-10-14T00:52:48.075Z,15.90
2022-10-14T00:55:19.458Z,15.90
2022-10-14T00:57:47.070Z,15.90
2022-10-14T01:00:15.828Z,15.90
2022-10-14T01:02:43.972Z,15.80
2022-10-14T01:05:13.470Z,15.80
2022-10-14T01:07:46.257Z,15.90
2022-10-14T01:10:13.749Z,16.00
2022-10-14T01:13:04.161Z,16.10
2022-10-14T01:15:52.702Z,16.10
2022-10-14T01:18:26.827Z,16.00
2022-10-14T01:21:00.390Z,15.90
2022-10-14T01:23:37.240Z,15.70
2022-10-14T01:26:25.077Z,15.60
2022-10-14T01:28:52.610Z,15.70
2022-10-14T01:31:26.983Z,15.70
2022-10-14T01:33:56.992Z,15.70
2022-10-14T01:36:35.619Z,15.60
2022-10-14T01:39:11.683Z,15.50
2022-10-14T01:41:41.759Z,15.40
2022-10-14T01:44:10.760Z,15.30
2022-10-14T01:46:41.115Z,15.40
2022-10-14T01:49:14.135Z,15.40
2022-10-14T01:51:46.484Z,15.30
2022-10-14T01:54:23.235Z,15.20
2022-10-14T01:56:51.791Z,15.00
2022-10-14T01:59:20.942Z,15.00
2022-10-14T02:01:48.474Z,15.20
2022-10-14T02:04:17.471Z,15.20
2022-10-14T02:06:51.292Z,15.10
2022-10-14T02:09:28.746Z,14.90
2022-10-14T02:12:15.031Z,14.90
2022-10-14T02:14:56.927Z,15.00
2022-10-14T02:17:24.403Z,15.00
2022-10-14T02:20:10.567Z,15.20
2022-10-14T02:22:44.549Z,15.30
2022-10-14T02:25:21.126Z,15.20
2022-10-14T02:27:49.533Z,15.10
2022-10-14T02:30:17.866Z,15.00
2022-10-14T02:32:48.373Z,14.80
2022-10-14T02:35:17.784Z,14.90
2022-10-14T02:37:48.101Z,14.90
2022-10-14T02:40:18.944Z,15.00
2022-10-14T02:42:46.650Z,14.90
2022-10-14T02:45:14.903Z,15.00
2022-10-14T02:47:42.397Z,15.00
2022-10-14T02:50:10.113Z,14.90
2022-10-14T02:52:37.685Z,14.80
2022-10-14T02:55:05.357Z,14.80
2022-10-14T02:57:32.932Z,14.70
2022-10-14T03:00:00.395Z,14.70
2022-10-14T03:02:28.334Z,14.60
2022-10-14T03:04:58.391Z,14.50
2022-10-14T03:07:25.949Z,14.40
2022-10-14T03:09:55.501Z,14.50
2022-10-14T03:12:25.188Z,14.50
2022-10-14T03:14:55.431Z,14.50
2022-10-14T03:17:27.181Z,14.40
2022-10-14T03:19:59.588Z,14.40
2022-10-14T03:22:27.117Z,14.40
2022-10-14T03:24:55.980Z,14.30
2022-10-14T03:27:49.502Z,14.20
2022-10-14T03:30:17.316Z,14.00
2022-10-14T03:32:56.387Z,14.00
2022-10-14T03:35:47.142Z,14.10
2022-10-14T03:38:18.660Z,14.10
2022-10-14T03:40:47.379Z,14.30
2022-10-14T03:43:15.265Z,14.40
2022-10-14T03:45:52.790Z,14.40
2022-10-14T03:48:22.768Z,14.40
2022-10-14T03:50:50.209Z,14.30
2022-10-14T03:53:20.975Z,14.20
2022-10-14T03:55:50.136Z,14.20
2022-10-14T03:58:17.592Z,14.20
2022-10-14T04:00:57.447Z,14.20
2022-10-14T04:03:36.169Z,14.20
2022-10-14T04:06:03.766Z,14.20
2022-10-14T04:08:31.469Z,14.30
2022-10-14T04:11:03.623Z,14.10
2022-10-14T04:13:39.509Z,14.10
2022-10-14T04:16:08.475Z,13.90
2022-10-14T04:18:58.866Z,13.70
2022-10-14T04:21:26.418Z,13.80
2022-10-14T04:23:54.458Z,14.00
2022-10-14T04:26:34.327Z,14.00
2022-10-14T04:29:03.551Z,13.90
2022-10-14T04:31:38.683Z,13.90
2022-10-14T04:34:06.166Z,13.90
2022-10-14T04:36:39.907Z,13.70
2022-10-14T04:39:21.250Z,13.90
2022-10-14T04:41:48.867Z,14.00
2022-10-14T04:44:19.636Z,14.00
2022-10-14T04:46:54.041Z,13.90
2022-10-14T04:49:24.640Z,13.90
2022-10-14T04:52:02.233Z,13.90
2022-10-14T04:54:36.518Z,13.90
2022-10-14T04:57:04.220Z,13.80
2022-10-14T04:59:31.712Z,13.90
2022-10-14T05:02:02.117Z,13.90
2022-10-14T05:04:38.160Z,13.90
2022-10-14T05:07:06.599Z,14.00
2022-10-14T05:09:34.342Z,13.90
2022-10-14T05:12:11.945Z,13.90
2022-10-14T05:14:47.300Z,13.80
2022-10-14T05:17:21.822Z,13.90
2022-10-14T05:19:49.457Z,14.10
2022-10-14T05:22:19.180Z,14.20
2022-10-14T05:24:47.033Z,14.00
2022-10-14T05:27:14.936Z,13.90
2022-10-14T05:29:43.847Z,13.90
2022-10-14T05:32:11.745Z,13.80
2022-10-14T05:34:45.274Z,13.80
2022-10-14T05:37:39.099Z,14.00
2022-10-14T05:40:07.489Z,14.10
2022-10-14T05:42:37.084Z,14.00
2022-10-14T05:45:05.368Z,14.00
2022-10-14T05:47:36.084Z,14.00
2022-10-14T05:50:12.443Z,14.20
2022-10-14T05:52:43.929Z,14.40
2022-10-14T05:55:20.114Z,14.50
2022-10-14T05:57:48.842Z,14.40
2022-10-14T06:00:24.838Z,14.40
2022-10-14T06:02:59.407Z,14.30
2022-10-14T06:05:27.921Z,14.40
2022-10-14T06:07:55.411Z,14.50
2022-10-14T06:10:22.933Z,14.40
2022-10-14T06:12:50.426Z,14.30
2022-10-14T06:15:18.108Z,14.40
2022-10-14T06:17:45.943Z,14.50
2022-10-14T06:20:13.482Z,14.50
2022-10-14T06:22:40.958Z,14.50
2022-10-14T06:25:08.811Z,14.60
2022-10-14T06:27:36.207Z,14.50
2022-10-14T06:30:04.422Z,14.60
2022-10-14T06:32:31.870Z,14.70
2022-10-14T06:34:59.376Z,14.80
2022-10-14T06:37:26.870Z,14.90
2022-10-14T06:39:54.527Z,15.10
2022-10-14T06:42:22.291Z,15.00
2022-10-14T06:44:50.617Z,15.10
2022-10-14T06:47:18.229Z,15.10
2022-10-14T06:49:45.715Z,15.10
2022-10-14T06:52:13.484Z,15.20
2022-10-14T06:54:44.730Z,15.30
2022-10-14T06:57:15.951Z,15.40
2022-10-14T06:59:43.668Z,15.40
2022-10-14T07:02:11.347Z,15.40
2022-10-14T07:04:41.791Z,15.60
2022-10-14T07:07:09.741Z,15.70
2022-10-14T07:09:37.525Z,15.80
2022-10-14T07:12:05.024Z,15.80
2022-10-14T07:14:32.506Z,15.90
2022-10-14T07:17:00.839Z,16.00
2022-10-14T07:19:28.323Z,16.10
2022-10-14T07:21:55.790Z,16.30
2022-10-14T07:24:23.193Z,16.30
2022-10-14T07:26:50.734Z,16.30
2022-10-14T07:29:18.357Z,16.50
2022-10-14T07:31:45.867Z,16.50
2022-10-14T07:34:13.386Z,16.50
2022-10-14T07:36:41.123Z,16.70
2022-10-14T07:39:08.749Z,16.70
2022-10-14T07:41:36.307Z,16.70
2022-10-14T07:44:06.580Z,16.70
2022-10-14T07:46:35.064Z,16.90
2022-10-14T07:49:04.997Z,17.00
2022-10-14T07:51:33.477Z,17.10
2022-10-14T07:54:02.034Z,17.10
2022-10-14T07:56:29.628Z,17.20
2022-10-14T07:58:58.179Z,17.30
2022-10-14T08:01:25.799Z,17.40
2022-10-14T08:03:53.614Z,17.50
2022-10-14T08:06:21.312Z,17.50
2022-10-14T08:08:48.891Z,17.60
2022-10-14T08:11:21.420Z,17.70
2022-10-14T08:13:49.148Z,17.80
2022-10-14T08:16:18.520Z,17.80
2022-10-14T08:18:46.603Z,17.90
2022-10-14T08:21:14.982Z,18.20
2022-10-14T08:23:42.757Z,18.30
2022-10-14T08:26:21.279Z,18.40
2022-10-14T08:28:49.554Z,18.50
2022-10-14T08:31:17.569Z,18.60
2022-10-14T08:33:45.193Z,18.60
2022-10-14T08:36:12.872Z,18.50
2022-10-14T08:38:40.623Z,18.50
2022-10-14T08:41:17.328Z,18.60
2022-10-14T08:43:54.729Z,18.70
2022-10-14T08:46:28.173Z,18.80
2022-10-14T08:48:59.922Z,18.70
2022-10-14T08:51:28.191Z,18.60
2022-10-14T08:53:57.892Z,18.70
2022-10-14T08:56:25.447Z,18.80
2022-10-14T08:58:54.625Z,18.80
2022-10-14T09:01:31.703Z,19.00
2022-10-14T09:04:13.065Z,18.90
2022-10-14T09:06:42.673Z,19.00
2022-10-14T09:09:15.590Z,19.00
2022-10-14T09:11:45.259Z,19.10
2022-10-14T09:14:16.893Z,19.20
2022-10-14T09:16:50.354Z,19.20
2022-10-14T09:19:20.773Z,19.10
2022-10-14T09:21:55.207Z,19.30
2022-10-14T09:24:24.017Z,19.40
2022-10-14T09:26:54.483Z,19.40
2022-10-14T09:29:29.647Z,19.30
2022-10-14T09:31:59.454Z,19.40
2022-10-14T09:34:29.863Z,19.50
2022-10-14T09:36:59.043Z,19.50
2022-10-14T09:39:27.859Z,19.50
2022-10-14T09:41:55.439Z,19.80
2022-10-14T09:44:25.590Z,19.90
2022-10-14T09:46:57.451Z,20.00
2022-10-14T09:49:39.357Z,20.10
2022-10-14T09:52:07.536Z,20.30
2022-10-14T09:54:35.462Z,20.20
2022-10-14T09:57:05.369Z,20.10
2022-10-14T09:59:33.569Z,20.20
2022-10-14T10:02:02.863Z,20.20
2022-10-14T10:04:47.537Z,20.30
2022-10-14T10:07:41.631Z,20.30
2022-10-14T10:10:20.236Z,20.40
2022-10-14T10:12:47.931Z,20.60
2022-10-14T10:15:21.409Z,20.80
2022-10-14T10:17:49.301Z,20.90
2022-10-14T10:20:28.432Z,20.90
2022-10-14T10:22:57.055Z,20.90
2022-10-14T10:25:28.641Z,20.60
2022-10-14T10:27:59.717Z,20.70
2022-10-14T10:30:34.471Z,20.80
2022-10-14T10:33:14.490Z,21.20
2022-10-14T10:35:43.662Z,21.30
2022-10-14T10:38:25.990Z,21.50
2022-10-14T10:41:08.853Z,21.60
2022-10-14T10:43:50.660Z,21.40
2022-10-14T10:46:20.366Z,21.60
2022-10-14T10:48:51.627Z,21.70
2022-10-14T10:51:26.972Z,21.80
2022-10-14T10:54:08.404Z,21.90
2022-10-14T10:56:38.968Z,22.00
2022-10-14T10:59:15.833Z,22.20
2022-10-14T11:01:46.453Z,22.30
2022-10-14T11:04:17.992Z,22.20
2022-10-14T11:07:13.489Z,22.20
2022-10-14T11:10:18.689Z,22.20
2022-10-14T11:12:50.561Z,22.30
2022-10-14T11:18:10.071Z,22.40
2022-10-14T11:20:42.382Z,22.50
2022-10-14T11:23:16.190Z,22.50
2022-10-14T11:25:55.846Z,22.60
2022-10-14T11:28:38.422Z,22.90
2022-10-14T11:31:08.791Z,22.80
2022-10-14T11:33:39.786Z,23.10
2022-10-14T11:36:10.537Z,23.10
2022-10-14T11:38:54.276Z,23.10
2022-10-14T11:41:22.674Z,23.10
2022-10-14T11:44:07.866Z,23.00
2022-10-14T11:46:38.281Z,23.00
2022-10-14T11:49:11.209Z,22.90
2022-10-14T11:51:51.249Z,22.90
2022-10-14T11:54:18.718Z,23.00
2022-10-14T11:56:57.615Z,22.90
2022-10-14T11:59:44.671Z,22.80
2022-10-14T12:02:21.682Z,22.70
2022-10-14T12:04:55.554Z,22.70
2022-10-14T12:07:27.190Z,22.80
2022-10-14T12:10:00.176Z,22.80
2022-10-14T12:12:29.266Z,22.50
2022-10-14T12:15:07.620Z,22.30
2022-10-14T12:17:54.176Z,22.30
2022-10-14T12:20:37.316Z,22.30
2022-10-14T12:23:07.177Z,22.30
2022-10-14T12:25:39.438Z,22.20
2022-10-14T12:28:09.110Z,22.30
2022-10-14T12:30:41.209Z,22.40
2022-10-14T12:33:10.140Z,22.50
2022-10-14T12:35:52.762Z,22.60
2022-10-14T12:38:21.281Z,22.70
2022-10-14T12:40:49.451Z,22.80
2022-10-14T12:43:27.775Z,22.60
2022-10-14T12:46:00.022Z,22.70
2022-10-14T12:48:29.754Z,22.80
2022-10-14T12:51:14.766Z,23.00
2022-10-14T12:53:54.735Z,22.90
2022-10-14T12:56:31.327Z,23.00
2022-10-14T12:59:03.305Z,23.10
2022-10-14T13:01:35.253Z,23.10
2022-10-14T13:04:07.579Z,23.20
2022-10-14T13:06:39.750Z,23.30
2022-10-14T13:09:13.400Z,23.30
2022-10-14T13:11:42.062Z,23.50
2022-10-14T13:14:23.265Z,23.70
2022-10-14T13:16:54.141Z,23.90
2022-10-14T13:19:34.187Z,23.40
2022-10-14T13:22:03.016Z,23.30
2022-10-14T13:24:39.744Z,23.10
2022-10-14T13:27:11.551Z,23.10
2022-10-14T13:29:51.316Z,23.00
2022-10-14T13:32:21.323Z,22.90
2022-10-14T13:34:59.102Z,23.00
2022-10-14T13:37:39.671Z,22.90
2022-10-14T13:40:21.889Z,23.00
2022-10-14T13:42:52.120Z,22.90
2022-10-14T13:45:22.256Z,22.90
2022-10-14T13:47:50.231Z,23.00
2022-10-14T13:50:21.278Z,23.00
2022-10-14T13:52:53.442Z,23.10
2022-10-14T13:55:23.920Z,23.00
2022-10-14T13:58:12.580Z,23.00
2022-10-14T14:01:01.579Z,23.20
2022-10-14T14:03:40.230Z,23.20
2022-10-14T14:06:14.801Z,23.20
2022-10-14T14:08:51.043Z,23.40
2022-10-14T14:11:20.196Z,23.20
2022-10-14T14:14:05.076Z,23.10
2022-10-14T14:16:37.087Z,22.70
2022-10-14T14:19:09.525Z,22.60
2022-10-14T14:21:37.767Z,22.60
2022-10-14T14:24:14.204Z,22.60
2022-10-14T14:26:41.841Z,22.70
2022-10-14T14:29:17.546Z,22.80
2022-10-14T14:32:05.646Z,22.90
2022-10-14T14:34:34.810Z,22.90
2022-10-14T14:37:11.037Z,22.80
2022-10-14T14:39:57.587Z,22.80
2022-10-14T14:42:26.787Z,22.70
2022-10-14T14:45:01.308Z,22.70
2022-10-14T14:47:29.342Z,22.60
2022-10-14T14:50:18.360Z,22.70
2022-10-14T14:52:47.689Z,22.60
2022-10-14T14:55:50.939Z,22.50
2022-10-14T14:58:21.483Z,22.40
2022-10-14T15:00:50.105Z,22.40
2022-10-14T15:03:17.684Z,22.30
2022-10-14T15:06:12.270Z,22.40
2022-10-14T15:08:40.187Z,22.40
2022-10-14T15:11:08.638Z,22.30
2022-10-14T15:13:39.321Z,22.40
2022-10-14T15:16:07.847Z,22.40
2022-10-14T15:18:38.159Z,22.50
2022-10-14T15:21:07.233Z,22.50
2022-10-14T15:23:42.783Z,22.20
2022-10-14T15:26:21.111Z,22.20
2022-10-14T15:29:09.300Z,22.10
2022-10-14T15:31:37.655Z,22.20
2022-10-14T15:34:05.259Z,22.10
2022-10-14T15:36:33.587Z,22.00
2022-10-14T15:39:02.587Z,22.10
2022-10-14T15:41:30.346Z,22.00
2022-10-14T15:43:57.807Z,21.90
2022-10-14T15:46:44.227Z,22.00
2022-10-14T15:49:16.782Z,21.90
2022-10-14T15:51:44.247Z,21.90
2022-10-14T15:54:14.476Z,21.80
2022-10-14T15:56:42.062Z,21.80
2022-10-14T15:59:10.296Z,21.70
2022-10-14T16:01:40.044Z,21.70
2022-10-14T16:04:14.652Z,21.70
2022-10-14T16:06:42.307Z,21.50
2022-10-14T16:09:09.938Z,21.40
2022-10-14T16:11:37.473Z,21.30
2022-10-14T16:14:06.685Z,21.10
2022-10-14T16:16:40.010Z,21.00
2022-10-14T16:19:07.598Z,21.00
2022-10-14T16:21:35.006Z,21.00
2022-10-14T16:24:03.799Z,20.90
2022-10-14T16:26:31.397Z,20.80
2022-10-14T16:29:00.463Z,20.60
2022-10-14T16:31:28.584Z,20.50
2022-10-14T16:33:56.010Z,20.40
2022-10-14T16:36:26.263Z,20.40
2022-10-14T16:38:56.865Z,20.40
2022-10-14T16:41:27.513Z,20.30
2022-10-14T16:43:54.897Z,20.30
2022-10-14T16:46:42.351Z,20.40
2022-10-14T16:49:09.890Z,20.50
2022-10-14T16:51:37.258Z,20.40
2022-10-14T16:54:04.853Z,20.40
2022-10-14T16:56:51.071Z,20.10
2022-10-14T16:59:19.010Z,20.00
2022-10-14T17:01:46.782Z,19.90
2022-10-14T17:04:22.483Z,19.90
2022-10-14T17:06:58.420Z,19.90
2022-10-14T17:09:26.103Z,19.80
2022-10-14T17:11:55.003Z,19.80
2022-10-14T17:14:24.421Z,19.80
2022-10-14T17:16:52.660Z,19.80
2022-10-14T17:19:20.631Z,19.80
2022-10-14T17:21:48.904Z,19.80
2022-10-14T17:24:17.291Z,20.00
2022-10-14T17:26:48.007Z,20.00
2022-10-14T17:29:15.520Z,20.00
2022-10-14T17:31:44.825Z,19.80
2022-10-14T17:34:12.705Z,19.70
2022-10-14T17:36:41.806Z,19.60
2022-10-14T17:39:18.773Z,19.60
2022-10-14T17:41:51.893Z,19.50
2022-10-14T17:44:19.526Z,19.40
2022-10-14T17:46:46.998Z,19.30
2022-10-14T17:49:15.311Z,19.40
2022-10-14T17:51:42.824Z,19.40
2022-10-14T17:54:11.814Z,19.30
2022-10-14T17:56:39.763Z,19.30
2022-10-14T17:59:08.530Z,19.40
2022-10-14T18:02:01.062Z,19.60
2022-10-14T18:04:23.791Z,19.70
2022-10-14T18:06:52.705Z,19.80
2022-10-14T18:09:20.258Z,19.70
2022-10-14T18:12:08.328Z,19.70
2022-10-14T18:14:36.872Z,19.50
2022-10-14T18:17:05.464Z,19.40
2022-10-14T18:19:33.634Z,19.40
2022-10-14T18:22:02.943Z,19.40
2022-10-14T18:24:30.784Z,19.30
2022-10-14T18:26:58.263Z,19.40
2022-10-14T18:29:25.866Z,19.30
2022-10-14T18:31:53.289Z,19.20
2022-10-14T18:34:22.716Z,19.20
2022-10-14T18:36:50.289Z,19.20
2022-10-14T18:39:18.001Z,19.20
2022-10-14T18:41:45.715Z,19.20
2022-10-14T18:44:13.433Z,19.30
2022-10-14T18:46:41.070Z,19.30
2022-10-14T18:49:10.622Z,19.30
2022-10-14T18:51:38.849Z,19.30
2022-10-14T18:54:13.712Z,19.30
2022-10-14T18:56:41.704Z,19.30
2022-10-14T18:59:14.054Z,19.30
2022-10-14T19:01:42.108Z,19.20
2022-10-14T19:04:13.115Z,19.10
2022-10-14T19:06:41.140Z,19.00
2022-10-14T19:09:12.715Z,18.90
2022-10-14T19:11:41.436Z,18.90
2022-10-14T19:14:10.054Z,18.90
2022-10-14T19:16:38.624Z,18.90
2022-10-14T19:19:16.731Z,18.80
2022-10-14T19:21:45.313Z,18.80
2022-10-14T19:24:13.181Z,18.70
2022-10-14T19:26:42.702Z,18.70
2022-10-14T19:29:11.944Z,18.70
2022-10-14T19:31:39.857Z,18.70
2022-10-14T19:34:08.587Z,18.60
2022-10-14T19:36:38.171Z,18.60
2022-10-14T19:39:07.166Z,18.60
2022-10-14T19:41:35.675Z,18.50
2022-10-14T19:44:03.564Z,18.50
2022-10-14T19:46:31.096Z,18.50
2022-10-14T19:48:59.501Z,18.40
2022-10-14T19:51:27.388Z,18.40
2022-10-14T19:53:55.209Z,18.20
2022-10-14T19:56:23.005Z,18.20
2022-10-14T19:58:53.098Z,18.20
2022-10-14T20:01:21.345Z,18.20
2022-10-14T20:03:48.893Z,18.10
2022-10-14T20:06:17.462Z,18.00
2022-10-14T20:08:46.228Z,17.90
2022-10-14T20:11:17.502Z,17.80
2022-10-14T20:13:45.330Z,17.80
2022-10-14T20:16:13.335Z,17.70
2022-10-14T20:18:40.849Z,17.70
2022-10-14T20:21:10.163Z,17.60
2022-10-14T20:23:41.012Z,17.80
2022-10-14T20:26:11.198Z,17.80
2022-10-14T20:28:39.129Z,17.80
2022-10-14T20:31:07.759Z,17.80
2022-10-14T20:33:35.299Z,17.80
2022-10-14T20:36:04.292Z,17.80
2022-10-14T20:38:31.835Z,17.70
2022-10-14T20:41:06.441Z,17.60
2022-10-14T20:43:34.102Z,17.60
2022-10-14T20:46:01.573Z,17.50
2022-10-14T20:48:29.109Z,17.50
2022-10-14T20:50:56.787Z,17.40
2022-10-14T20:53:24.440Z,17.40
2022-10-14T20:55:51.993Z,17.40
2022-10-14T20:58:21.107Z,17.30
2022-10-14T21:00:48.739Z,17.30
2022-10-14T21:03:16.209Z,17.30
2022-10-14T21:05:43.739Z,17.40
2022-10-14T21:08:11.314Z,17.30
2022-10-14T21:10:38.791Z,17.30
2022-10-14T21:13:06.258Z,17.30
2022-10-14T21:15:35.107Z,17.20
2022-10-14T21:18:02.579Z,17.30
2022-10-14T21:20:30.111Z,17.30
2022-10-14T21:22:57.558Z,17.40
2022-10-14T21:25:25.071Z,17.40
2022-10-14T21:27:52.548Z,17.40
2022-10-14T21:30:20.028Z,17.30
2022-10-14T21:32:47.544Z,17.30
2022-10-14T21:35:15.115Z,17.30
2022-10-14T21:37:43.079Z,17.40
2022-10-14T21:40:10.893Z,17.30
2022-10-14T21:42:38.312Z,17.30
2022-10-14T21:45:05.895Z,17.30
2022-10-14T21:47:33.530Z,17.30
2022-10-14T21:50:01.094Z,17.30
2022-10-14T21:52:28.571Z,17.30
2022-10-14T21:54:56.093Z,17.30
2022-10-14T21:57:23.934Z,17.20
2022-10-14T21:59:51.825Z,17.10
2022-10-14T22:02:20.556Z,17.00
2022-10-14T22:04:48.185Z,16.90
2022-10-14T22:07:15.700Z,16.90
2022-10-14T22:09:43.237Z,16.90
2022-10-14T22:12:12.329Z,16.80
2022-10-14T22:14:39.968Z,16.80
2022-10-14T22:17:07.491Z,16.80
2022-10-14T22:19:34.995Z,16.80
2022-10-14T22:22:03.431Z,16.90
2022-10-14T22:24:31.014Z,17.00
2022-10-14T22:26:58.409Z,16.90
2022-10-14T22:29:26.222Z,16.90
2022-10-14T22:31:53.884Z,16.90
2022-10-14T22:34:21.449Z,16.90
2022-10-14T22:36:50.441Z,16.80
2022-10-14T22:39:18.701Z,16.80
2022-10-14T22:41:46.156Z,16.90
2022-10-14T22:44:13.665Z,16.90
2022-10-14T22:46:41.386Z,17.00
2022-10-14T22:49:08.871Z,17.00
2022-10-14T22:51:38.142Z,17.10
2022-10-14T22:54:05.966Z,17.00
2022-10-14T22:56:35.723Z,17.00
2022-10-14T22:59:04.776Z,16.90
2022-10-14T23:01:32.442Z,16.90
2022-10-14T23:04:00.384Z,16.80
2022-10-14T23:06:28.578Z,16.70
2022-10-14T23:08:56.086Z,16.80
2022-10-14T23:11:24.421Z,16.90
2022-10-14T23:13:52.327Z,16.80
2022-10-14T23:16:21.161Z,16.70
2022-10-14T23:18:49.078Z,16.80
2022-10-14T23:21:17.932Z,16.70
2022-10-14T23:23:45.909Z,16.60
2022-10-14T23:26:15.564Z,16.70
2022-10-14T23:28:43.809Z,16.70
2022-10-14T23:31:13.109Z,16.70
2022-10-14T23:33:41.158Z,16.50
2022-10-14T23:36:10.153Z,16.40
2022-10-14T23:38:37.987Z,16.40
2022-10-14T23:41:06.859Z,16.40
2022-10-14T23:43:34.542Z,16.40
2022-10-14T23:46:02.062Z,16.40
2022-10-14T23:48:29.910Z,16.40
2022-10-14T23:50:57.433Z,16.30
2022-10-14T23:53:26.687Z,16.20
2022-10-14T23:55:54.893Z,16.20
2022-10-14T23:58:23.768Z,16.20
